To NAV CANADA Home Page Login to a new session Search on AWWS site Disclaimer Vers la page française équivalente Tips FAQ What's new on the site To the Forecasts and Observations / NOTAM section To "File a Flight Plan" website Publications and other links Update of the User's profile FIC Telephone Numbers My Weather Data Folder Route Weather Data Regional Weather Data Local Weather Data To the Forecasts and Observations / NOTAM section
Request Generated 02/17/2019 at 01:20:11 UTC . Weather information available at that time is displayed.

METAR/TAF

TORONTO/LESTER B. PEARSON INTL/ON    

METAR CYYZ 170100Z 01010KT 15SM FEW180 M06/M12 A3011 RMK AC1 AC TR SLP208=
METAR CYYZ 170000Z 01012KT 15SM FEW180 M06/M12 A3011 RMK AC1 AC TR SLP207=
METAR CYYZ 162300Z 01010KT 15SM FEW030 SCT220 M05/M11 A3008 RMK SC1CI3 SLP199=

TAF CYYZ 162339Z 1700/1806 01010KT P6SM FEW030 SCT220
FM171200 01008KT P6SM BKN012
FM171400 04008KT P6SM -SHSN BKN012 BKN220
FM171600 05010KT 4SM -SHSN BKN015 OVC140
FM172200 05012KT 4SM -SN BKN020 OVC070 PROB30 1722/1806 11/2SM
-SHSN
RMK NXT FCST BY 170300Z=
Your time UTC time
Weather data provided by Environment Canada and NAV CANADA